MDT,Max TemperatureF,Mean TemperatureF,Min TemperatureF,Max Dew PointF,MeanDew PointF,Min DewpointF,Max Humidity, Mean Humidity, Min Humidity, Max Sea Level PressureIn, Mean Sea Level PressureIn, Min Sea Level PressureIn, Max VisibilityMiles, Mean VisibilityMiles, Min VisibilityMiles, Max Wind SpeedMPH, Mean Wind SpeedMPH, Max Gust SpeedMPH,PrecipitationIn, CloudCover, Events, WindDirDegrees
2013-5-1,52,39,26,31,27,22,100,65,30,30.61,30.47,30.27,10,9,2,15,5,18,T,7,Snow,191
2013-5-2,62,41,20,33,26,20,96,61,25,30.65,30.50,30.28,10,10,10,16,5,20,0.00,0,,167
2013-5-3,60,48,36,43,37,32,89,63,36,30.32,30.28,30.25,10,10,10,16,5,20,0.04,7,Rain,9
2013-5-4,67,49,31,36,30,26,89,56,22,30.35,30.28,30.18,10,10,10,15,5,21,0.00,2,,26
2013-5-5,74,53,31,35,30,25,82,49,16,30.20,30.07,29.92,10,10,10,17,4,22,0.00,0,,337
2013-5-6,77,55,32,36,31,20,82,47,12,30.00,29.91,29.78,10,10,10,17,4,20,0.00,0,,314
2013-5-7,76,55,33,36,32,30,89,56,22,30.01,29.92,29.83,10,10,10,25,10,31,0.00,0,,20
2013-5-8,78,60,41,42,36,32,71,47,23,30.09,30.03,29.96,10,10,10,16,6,20,0.00,0,,14
2013-5-9,83,63,43,43,38,19,80,45,10,30.12,30.05,29.98,10,10,10,13,4,17,0.00,1,Thunderstorm,357
2013-5-10,77,57,37,37,34,31,76,48,19,30.30,30.20,30.09,10,10,10,23,6,29,0.00,0,,18
2013-5-11,83,63,43,48,39,30,76,47,18,30.20,30.11,29.98,10,10,10,16,7,22,T,1,,101
2013-5-12,85,63,41,49,44,39,89,56,23,30.05,29.97,29.89,10,10,10,25,8,35,0.00,1,,234
2013-5-13,77,63,49,48,45,39,77,56,35,29.98,29.88,29.70,10,10,10,36,11,47,T,5,Rain,215
2013-5-14,62,48,33,39,29,23,71,47,23,30.10,30.04,29.92,10,10,10,17,7,25,T,2,,261
2013-5-15,64,45,25,38,30,26,100,64,27,30.13,30.03,29.91,10,10,10,13,2,15,0.00,1,,155
2013-5-16,62,52,42,46,41,37,89,69,49,29.94,29.91,29.86,10,9,2,14,2,17,0.09,8,Rain,123
2013-5-17,69,53,37,47,42,37,96,67,37,29.96,29.90,29.83,10,10,10,17,5,21,T,3,Rain,285
2013-5-18,62,54,46,50,47,46,100,84,67,30.09,29.99,29.94,10,9,2,16,2,21,0.51,8,Rain,177
2013-5-19,62,55,47,51,47,42,100,80,60,30.24,30.16,30.08,10,9,2,10,4,15,0.18,8,Rain,186
2013-5-20,71,60,48,49,47,39,100,67,33,30.27,30.20,30.01,10,6,0,6,2,,0.00,5,Fog,139
2013-5-21,78,61,44,46,42,30,89,57,25,30.01,29.78,29.62,10,10,10,29,6,64,T,3,Rain,69
2013-5-22,64,51,37,48,41,35,93,68,43,30.04,29.81,29.59,10,8,2,24,9,30,0.94,7,Rain,156
2013-5-23,55,43,32,40,34,30,100,88,53,30.07,30.01,29.98,10,5,1,7,2,,0.56,7,Rain-Snow,63
2013-5-24,60,47,33,41,37,33,100,71,42,29.99,29.94,29.86,10,10,6,20,7,24,T,4,Rain,189
2013-5-25,61,50,38,39,36,33,92,66,39,30.03,30.00,29.99,10,10,10,13,5,17,0.00,5,,188
2013-5-26,71,52,32,43,36,25,100,60,19,30.03,29.94,29.83,10,10,10,14,3,18,0.00,0,,94
2013-5-27,66,55,44,46,44,41,93,69,44,29.89,29.83,29.76,10,10,10,15,4,18,0.03,5,Rain,212
2013-5-28,63,55,47,50,47,45,96,78,60,29.80,29.77,29.74,10,9,1,10,5,12,0.22,8,Rain,190
2013-5-29,70,58,45,49,45,34,100,64,27,29.80,29.72,29.61,10,8,1,20,3,25,0.15,6,Rain,187
2013-5-30,57,53,48,47,45,39,93,72,51,30.05,29.91,29.83,10,9,2,14,3,23,0.32,8,Rain,179
2013-5-31,59,52,44,47,43,39,93,75,57,30.29,30.19,30.06,10,10,10,13,4,17,0.02,7,Rain,150